sensor_id;sensor_type;location;lat;lon;timestamp;P1;durP1;ratioP1;P2;durP2;ratioP2
2728;SDS011;1372;47.956;7.830;2022-11-20T00:01:37;2.67;;;2.47;;
2728;SDS011;1372;47.956;7.830;2022-11-20T00:04:05;2.20;;;2.10;;
2728;SDS011;1372;47.956;7.830;2022-11-20T00:06:37;2.63;;;2.43;;
2728;SDS011;1372;47.956;7.830;2022-11-20T00:09:05;2.03;;;1.90;;
2728;SDS011;1372;47.956;7.830;2022-11-20T00:11:34;3.40;;;2.90;;
2728;SDS011;1372;47.956;7.830;2022-11-20T00:14:03;3.80;;;2.70;;
2728;SDS011;1372;47.956;7.830;2022-11-20T00:16:33;2.90;;;2.67;;
2728;SDS011;1372;47.956;7.830;2022-11-20T00:19:01;2.50;;;2.17;;
2728;SDS011;1372;47.956;7.830;2022-11-20T00:21:30;5.60;;;2.83;;
2728;SDS011;1372;47.956;7.830;2022-11-20T00:24:00;2.97;;;2.67;;
2728;SDS011;1372;47.956;7.830;2022-11-20T00:26:29;3.07;;;2.77;;
2728;SDS011;1372;47.956;7.830;2022-11-20T00:29:00;2.83;;;2.57;;
2728;SDS011;1372;47.956;7.830;2022-11-20T00:31:29;7.40;;;2.37;;
2728;SDS011;1372;47.956;7.830;2022-11-20T00:33:59;2.70;;;2.50;;
2728;SDS011;1372;47.956;7.830;2022-11-20T00:36:28;2.73;;;2.50;;
2728;SDS011;1372;47.956;7.830;2022-11-20T00:39:05;4.20;;;3.07;;
2728;SDS011;1372;47.956;7.830;2022-11-20T00:41:34;4.90;;;3.57;;
2728;SDS011;1372;47.956;7.830;2022-11-20T00:44:03;4.70;;;2.97;;
2728;SDS011;1372;47.956;7.830;2022-11-20T00:46:32;3.73;;;2.97;;
2728;SDS011;1372;47.956;7.830;2022-11-20T00:49:00;3.83;;;3.27;;
2728;SDS011;1372;47.956;7.830;2022-11-20T00:51:31;4.93;;;3.60;;
2728;SDS011;1372;47.956;7.830;2022-11-20T00:54:02;3.57;;;3.23;;
2728;SDS011;1372;47.956;7.830;2022-11-20T00:56:32;4.40;;;3.23;;
2728;SDS011;1372;47.956;7.830;2022-11-20T00:59:01;3.80;;;3.30;;
2728;SDS011;1372;47.956;7.830;2022-11-20T01:01:30;4.37;;;3.30;;
2728;SDS011;1372;47.956;7.830;2022-11-20T01:03:59;4.13;;;3.73;;
2728;SDS011;1372;47.956;7.830;2022-11-20T01:06:29;3.60;;;2.90;;
2728;SDS011;1372;47.956;7.830;2022-11-20T01:09:03;3.33;;;3.07;;
2728;SDS011;1372;47.956;7.830;2022-11-20T01:11:36;3.13;;;2.83;;
2728;SDS011;1372;47.956;7.830;2022-11-20T01:14:09;2.83;;;2.63;;
2728;SDS011;1372;47.956;7.830;2022-11-20T01:16:40;3.27;;;2.97;;
2728;SDS011;1372;47.956;7.830;2022-11-20T01:19:12;4.17;;;2.93;;
2728;SDS011;1372;47.956;7.830;2022-11-20T01:21:44;4.80;;;3.00;;
2728;SDS011;1372;47.956;7.830;2022-11-20T01:24:17;3.37;;;3.07;;
2728;SDS011;1372;47.956;7.830;2022-11-20T01:26:50;3.67;;;3.37;;
2728;SDS011;1372;47.956;7.830;2022-11-20T01:29:20;3.60;;;3.30;;
2728;SDS011;1372;47.956;7.830;2022-11-20T01:31:51;4.10;;;3.40;;
2728;SDS011;1372;47.956;7.830;2022-11-20T01:34:21;4.00;;;3.40;;
2728;SDS011;1372;47.956;7.830;2022-11-20T01:36:50;4.03;;;3.73;;
2728;SDS011;1372;47.956;7.830;2022-11-20T01:39:23;3.03;;;2.73;;
2728;SDS011;1372;47.956;7.830;2022-11-20T01:41:55;3.40;;;3.10;;
2728;SDS011;1372;47.956;7.830;2022-11-20T01:44:52;3.23;;;2.83;;
2728;SDS011;1372;47.956;7.830;2022-11-20T01:47:25;3.10;;;2.80;;
2728;SDS011;1372;47.956;7.830;2022-11-20T01:50:01;3.07;;;2.77;;
2728;SDS011;1372;47.956;7.830;2022-11-20T01:52:36;3.07;;;2.60;;
2728;SDS011;1372;47.956;7.830;2022-11-20T01:55:08;2.93;;;2.60;;
2728;SDS011;1372;47.956;7.830;2022-11-20T01:57:41;2.90;;;2.70;;
2728;SDS011;1372;47.956;7.830;2022-11-20T02:00:12;4.73;;;2.93;;
2728;SDS011;1372;47.956;7.830;2022-11-20T02:02:44;3.10;;;2.80;;
2728;SDS011;1372;47.956;7.830;2022-11-20T02:05:17;3.30;;;3.00;;
2728;SDS011;1372;47.956;7.830;2022-11-20T02:07:51;3.73;;;2.30;;
2728;SDS011;1372;47.956;7.830;2022-11-20T02:10:24;2.67;;;2.40;;
2728;SDS011;1372;47.956;7.830;2022-11-20T02:12:56;2.90;;;1.97;;
2728;SDS011;1372;47.956;7.830;2022-11-20T02:15:51;2.80;;;2.57;;
2728;SDS011;1372;47.956;7.830;2022-11-20T02:18:21;3.30;;;2.77;;
2728;SDS011;1372;47.956;7.830;2022-11-20T02:20:52;3.00;;;2.57;;
2728;SDS011;1372;47.956;7.830;2022-11-20T02:23:28;2.27;;;2.07;;
2728;SDS011;1372;47.956;7.830;2022-11-20T02:26:03;3.03;;;2.83;;
2728;SDS011;1372;47.956;7.830;2022-11-20T02:28:37;3.53;;;2.27;;
2728;SDS011;1372;47.956;7.830;2022-11-20T02:31:05;2.60;;;2.40;;
2728;SDS011;1372;47.956;7.830;2022-11-20T02:33:34;3.00;;;2.00;;
2728;SDS011;1372;47.956;7.830;2022-11-20T02:36:03;3.20;;;2.87;;
2728;SDS011;1372;47.956;7.830;2022-11-20T02:38:32;5.50;;;2.53;;
2728;SDS011;1372;47.956;7.830;2022-11-20T02:41:02;4.40;;;2.80;;
2728;SDS011;1372;47.956;7.830;2022-11-20T02:43:31;7.40;;;2.50;;
2728;SDS011;1372;47.956;7.830;2022-11-20T02:46:00;4.47;;;2.57;;
2728;SDS011;1372;47.956;7.830;2022-11-20T02:48:28;3.43;;;2.23;;
2728;SDS011;1372;47.956;7.830;2022-11-20T02:50:59;2.33;;;2.13;;
2728;SDS011;1372;47.956;7.830;2022-11-20T02:53:28;2.90;;;2.60;;
2728;SDS011;1372;47.956;7.830;2022-11-20T02:55:59;2.10;;;2.00;;
2728;SDS011;1372;47.956;7.830;2022-11-20T02:58:29;2.00;;;1.80;;
2728;SDS011;1372;47.956;7.830;2022-11-20T03:00:57;1.90;;;1.70;;
2728;SDS011;1372;47.956;7.830;2022-11-20T03:03:28;2.30;;;2.10;;
2728;SDS011;1372;47.956;7.830;2022-11-20T03:05:59;1.90;;;1.80;;
2728;SDS011;1372;47.956;7.830;2022-11-20T03:08:28;2.47;;;1.90;;
2728;SDS011;1372;47.956;7.830;2022-11-20T03:10:56;3.40;;;2.20;;
2728;SDS011;1372;47.956;7.830;2022-11-20T03:13:33;3.57;;;2.20;;
2728;SDS011;1372;47.956;7.830;2022-11-20T03:16:06;2.20;;;1.80;;
2728;SDS011;1372;47.956;7.830;2022-11-20T03:18:38;2.50;;;2.30;;
2728;SDS011;1372;47.956;7.830;2022-11-20T03:21:07;1.90;;;1.80;;
2728;SDS011;1372;47.956;7.830;2022-11-20T03:23:36;1.87;;;1.77;;
2728;SDS011;1372;47.956;7.830;2022-11-20T03:26:09;1.90;;;1.80;;
2728;SDS011;1372;47.956;7.830;2022-11-20T03:28:47;2.37;;;2.17;;
2728;SDS011;1372;47.956;7.830;2022-11-20T03:31:18;2.53;;;2.10;;
2728;SDS011;1372;47.956;7.830;2022-11-20T03:33:49;2.10;;;1.90;;
2728;SDS011;1372;47.956;7.830;2022-11-20T03:36:18;2.50;;;2.30;;
2728;SDS011;1372;47.956;7.830;2022-11-20T03:38:48;1.87;;;1.77;;
2728;SDS011;1372;47.956;7.830;2022-11-20T03:41:17;1.73;;;1.63;;
2728;SDS011;1372;47.956;7.830;2022-11-20T03:43:51;2.93;;;2.63;;
2728;SDS011;1372;47.956;7.830;2022-11-20T03:46:22;2.20;;;2.00;;
2728;SDS011;1372;47.956;7.830;2022-11-20T03:48:53;3.20;;;2.63;;
2728;SDS011;1372;47.956;7.830;2022-11-20T03:51:25;2.27;;;2.07;;
2728;SDS011;1372;47.956;7.830;2022-11-20T03:53:56;2.00;;;1.90;;
2728;SDS011;1372;47.956;7.830;2022-11-20T03:56:27;3.17;;;2.10;;
2728;SDS011;1372;47.956;7.830;2022-11-20T03:58:59;4.30;;;2.30;;
2728;SDS011;1372;47.956;7.830;2022-11-20T04:01:29;1.77;;;1.67;;
2728;SDS011;1372;47.956;7.830;2022-11-20T04:04:01;2.23;;;1.97;;
2728;SDS011;1372;47.956;7.830;2022-11-20T04:06:32;2.80;;;2.50;;
2728;SDS011;1372;47.956;7.830;2022-11-20T04:09:03;2.20;;;2.00;;
2728;SDS011;1372;47.956;7.830;2022-11-20T04:11:34;2.03;;;1.80;;
2728;SDS011;1372;47.956;7.830;2022-11-20T04:14:06;2.33;;;2.00;;
2728;SDS011;1372;47.956;7.830;2022-11-20T04:16:42;1.60;;;1.50;;
2728;SDS011;1372;47.956;7.830;2022-11-20T04:19:11;3.50;;;1.70;;
2728;SDS011;1372;47.956;7.830;2022-11-20T04:21:45;1.30;;;1.20;;
2728;SDS011;1372;47.956;7.830;2022-11-20T04:24:13;1.40;;;1.30;;
2728;SDS011;1372;47.956;7.830;2022-11-20T04:26:42;1.53;;;1.20;;
2728;SDS011;1372;47.956;7.830;2022-11-20T04:29:12;2.47;;;1.40;;
2728;SDS011;1372;47.956;7.830;2022-11-20T04:31:41;1.50;;;1.40;;
2728;SDS011;1372;47.956;7.830;2022-11-20T04:34:11;1.80;;;1.70;;
2728;SDS011;1372;47.956;7.830;2022-11-20T04:36:43;1.53;;;1.43;;
2728;SDS011;1372;47.956;7.830;2022-11-20T04:39:14;1.60;;;1.40;;
2728;SDS011;1372;47.956;7.830;2022-11-20T04:41:43;1.63;;;1.17;;
2728;SDS011;1372;47.956;7.830;2022-11-20T04:44:13;2.10;;;1.30;;
2728;SDS011;1372;47.956;7.830;2022-11-20T04:46:44;1.17;;;1.07;;
2728;SDS011;1372;47.956;7.830;2022-11-20T04:49:13;1.20;;;1.20;;
2728;SDS011;1372;47.956;7.830;2022-11-20T04:51:42;0.90;;;0.90;;
2728;SDS011;1372;47.956;7.830;2022-11-20T04:54:11;1.00;;;0.90;;
2728;SDS011;1372;47.956;7.830;2022-11-20T04:56:39;0.90;;;0.90;;
2728;SDS011;1372;47.956;7.830;2022-11-20T04:59:08;3.90;;;1.10;;
2728;SDS011;1372;47.956;7.830;2022-11-20T05:01:38;0.90;;;0.90;;
2728;SDS011;1372;47.956;7.830;2022-11-20T05:04:07;3.90;;;1.20;;
2728;SDS011;1372;47.956;7.830;2022-11-20T05:06:38;0.90;;;0.90;;
2728;SDS011;1372;47.956;7.830;2022-11-20T05:09:07;1.03;;;1.03;;
2728;SDS011;1372;47.956;7.830;2022-11-20T05:11:35;1.13;;;1.07;;
2728;SDS011;1372;47.956;7.830;2022-11-20T05:14:04;1.03;;;1.03;;
2728;SDS011;1372;47.956;7.830;2022-11-20T05:16:33;2.33;;;1.67;;
2728;SDS011;1372;47.956;7.830;2022-11-20T05:19:04;1.60;;;1.50;;
2728;SDS011;1372;47.956;7.830;2022-11-20T05:21:32;1.30;;;1.13;;
2728;SDS011;1372;47.956;7.830;2022-11-20T05:24:01;1.53;;;1.43;;
2728;SDS011;1372;47.956;7.830;2022-11-20T05:26:31;1.60;;;1.50;;
2728;SDS011;1372;47.956;7.830;2022-11-20T05:29:00;1.73;;;1.43;;
2728;SDS011;1372;47.956;7.830;2022-11-20T05:31:28;1.50;;;1.40;;
2728;SDS011;1372;47.956;7.830;2022-11-20T05:33:57;1.90;;;1.80;;
2728;SDS011;1372;47.956;7.830;2022-11-20T05:36:29;2.40;;;1.67;;
2728;SDS011;1372;47.956;7.830;2022-11-20T05:38:58;1.63;;;1.23;;
2728;SDS011;1372;47.956;7.830;2022-11-20T05:41:27;1.53;;;1.43;;
2728;SDS011;1372;47.956;7.830;2022-11-20T05:43:58;1.90;;;1.70;;
2728;SDS011;1372;47.956;7.830;2022-11-20T05:46:26;1.87;;;1.40;;
2728;SDS011;1372;47.956;7.830;2022-11-20T05:48:55;2.27;;;2.07;;
2728;SDS011;1372;47.956;7.830;2022-11-20T05:51:25;2.03;;;1.70;;
2728;SDS011;1372;47.956;7.830;2022-11-20T05:53:56;1.60;;;1.50;;
2728;SDS011;1372;47.956;7.830;2022-11-20T05:56:26;1.80;;;1.70;;
2728;SDS011;1372;47.956;7.830;2022-11-20T05:58:54;1.80;;;1.70;;
2728;SDS011;1372;47.956;7.830;2022-11-20T06:01:24;1.80;;;1.70;;
2728;SDS011;1372;47.956;7.830;2022-11-20T06:03:53;2.03;;;1.90;;
2728;SDS011;1372;47.956;7.830;2022-11-20T06:06:22;3.80;;;1.30;;
2728;SDS011;1372;47.956;7.830;2022-11-20T06:08:51;1.70;;;1.60;;
2728;SDS011;1372;47.956;7.830;2022-11-20T06:11:21;1.07;;;1.07;;
2728;SDS011;1372;47.956;7.830;2022-11-20T06:13:52;2.07;;;1.63;;
2728;SDS011;1372;47.956;7.830;2022-11-20T06:16:21;1.83;;;1.67;;
2728;SDS011;1372;47.956;7.830;2022-11-20T06:18:50;1.67;;;1.47;;
2728;SDS011;1372;47.956;7.830;2022-11-20T06:21:19;2.53;;;1.83;;
2728;SDS011;1372;47.956;7.830;2022-11-20T06:23:50;1.83;;;1.70;;
2728;SDS011;1372;47.956;7.830;2022-11-20T06:26:22;1.83;;;1.47;;
2728;SDS011;1372;47.956;7.830;2022-11-20T06:28:52;1.63;;;1.53;;
2728;SDS011;1372;47.956;7.830;2022-11-20T06:31:23;3.33;;;2.23;;
2728;SDS011;1372;47.956;7.830;2022-11-20T06:33:53;2.07;;;1.97;;
2728;SDS011;1372;47.956;7.830;2022-11-20T06:36:22;6.80;;;2.80;;
2728;SDS011;1372;47.956;7.830;2022-11-20T06:38:53;8.53;;;4.40;;
2728;SDS011;1372;47.956;7.830;2022-11-20T06:41:23;11.80;;;7.17;;
2728;SDS011;1372;47.956;7.830;2022-11-20T06:43:52;13.63;;;8.90;;
2728;SDS011;1372;47.956;7.830;2022-11-20T06:46:21;5.63;;;2.80;;
2728;SDS011;1372;47.956;7.830;2022-11-20T06:48:50;6.20;;;4.87;;
2728;SDS011;1372;47.956;7.830;2022-11-20T06:51:19;12.43;;;7.77;;
2728;SDS011;1372;47.956;7.830;2022-11-20T06:53:47;10.20;;;5.17;;
2728;SDS011;1372;47.956;7.830;2022-11-20T06:56:16;5.33;;;3.93;;
2728;SDS011;1372;47.956;7.830;2022-11-20T06:58:46;7.80;;;4.43;;
2728;SDS011;1372;47.956;7.830;2022-11-20T07:01:15;4.77;;;3.97;;
2728;SDS011;1372;47.956;7.830;2022-11-20T07:03:44;4.33;;;3.17;;
2728;SDS011;1372;47.956;7.830;2022-11-20T07:06:17;3.90;;;1.93;;
2728;SDS011;1372;47.956;7.830;2022-11-20T07:08:45;5.43;;;3.60;;
2728;SDS011;1372;47.956;7.830;2022-11-20T07:11:14;3.00;;;2.43;;
2728;SDS011;1372;47.956;7.830;2022-11-20T07:13:43;2.40;;;2.20;;
2728;SDS011;1372;47.956;7.830;2022-11-20T07:16:13;2.60;;;2.40;;
2728;SDS011;1372;47.956;7.830;2022-11-20T07:18:44;4.37;;;3.27;;
2728;SDS011;1372;47.956;7.830;2022-11-20T07:21:16;3.33;;;2.67;;
2728;SDS011;1372;47.956;7.830;2022-11-20T07:23:45;3.67;;;2.50;;
2728;SDS011;1372;47.956;7.830;2022-11-20T07:26:14;3.23;;;2.30;;
2728;SDS011;1372;47.956;7.830;2022-11-20T07:28:44;1.50;;;1.40;;
2728;SDS011;1372;47.956;7.830;2022-11-20T07:31:15;7.33;;;6.63;;
2728;SDS011;1372;47.956;7.830;2022-11-20T07:33:45;4.20;;;3.60;;
2728;SDS011;1372;47.956;7.830;2022-11-20T07:36:14;2.70;;;2.50;;
2728;SDS011;1372;47.956;7.830;2022-11-20T07:38:42;2.23;;;2.03;;
2728;SDS011;1372;47.956;7.830;2022-11-20T07:41:12;3.33;;;3.00;;
2728;SDS011;1372;47.956;7.830;2022-11-20T07:43:40;3.17;;;2.67;;
2728;SDS011;1372;47.956;7.830;2022-11-20T07:46:12;2.33;;;2.23;;
2728;SDS011;1372;47.956;7.830;2022-11-20T07:48:44;2.93;;;2.23;;
2728;SDS011;1372;47.956;7.830;2022-11-20T07:51:13;3.27;;;1.90;;
2728;SDS011;1372;47.956;7.830;2022-11-20T07:53:41;1.67;;;1.57;;
2728;SDS011;1372;47.956;7.830;2022-11-20T07:56:10;2.40;;;1.40;;
2728;SDS011;1372;47.956;7.830;2022-11-20T07:58:40;2.43;;;1.70;;
2728;SDS011;1372;47.956;7.830;2022-11-20T08:01:09;1.60;;;1.50;;
2728;SDS011;1372;47.956;7.830;2022-11-20T08:03:38;2.90;;;1.97;;
2728;SDS011;1372;47.956;7.830;2022-11-20T08:06:08;2.03;;;1.80;;
2728;SDS011;1372;47.956;7.830;2022-11-20T08:08:37;1.93;;;1.83;;
2728;SDS011;1372;47.956;7.830;2022-11-20T08:11:08;2.37;;;1.93;;
2728;SDS011;1372;47.956;7.830;2022-11-20T08:13:57;2.63;;;1.97;;
2728;SDS011;1372;47.956;7.830;2022-11-20T08:16:41;2.40;;;2.13;;
2728;SDS011;1372;47.956;7.830;2022-11-20T08:19:12;3.20;;;2.27;;
2728;SDS011;1372;47.956;7.830;2022-11-20T08:21:43;3.00;;;2.47;;
2728;SDS011;1372;47.956;7.830;2022-11-20T08:24:12;2.50;;;2.07;;
2728;SDS011;1372;47.956;7.830;2022-11-20T08:26:41;2.87;;;2.23;;
2728;SDS011;1372;47.956;7.830;2022-11-20T08:29:10;2.60;;;2.40;;
2728;SDS011;1372;47.956;7.830;2022-11-20T08:31:39;2.47;;;2.27;;
2728;SDS011;1372;47.956;7.830;2022-11-20T08:34:08;2.03;;;1.70;;
2728;SDS011;1372;47.956;7.830;2022-11-20T08:36:41;2.63;;;2.40;;
2728;SDS011;1372;47.956;7.830;2022-11-20T08:39:14;2.17;;;1.97;;
2728;SDS011;1372;47.956;7.830;2022-11-20T08:41:43;2.00;;;1.90;;
2728;SDS011;1372;47.956;7.830;2022-11-20T08:44:12;2.90;;;2.40;;
2728;SDS011;1372;47.956;7.830;2022-11-20T08:46:41;3.67;;;2.73;;
2728;SDS011;1372;47.956;7.830;2022-11-20T08:49:15;3.90;;;2.93;;
2728;SDS011;1372;47.956;7.830;2022-11-20T08:51:46;5.57;;;3.60;;
2728;SDS011;1372;47.956;7.830;2022-11-20T08:54:18;2.60;;;2.40;;
2728;SDS011;1372;47.956;7.830;2022-11-20T08:56:48;3.33;;;2.10;;
2728;SDS011;1372;47.956;7.830;2022-11-20T08:59:19;2.40;;;2.00;;
2728;SDS011;1372;47.956;7.830;2022-11-20T09:02:08;2.83;;;2.60;;
2728;SDS011;1372;47.956;7.830;2022-11-20T09:04:38;4.80;;;4.30;;
2728;SDS011;1372;47.956;7.830;2022-11-20T09:07:08;5.50;;;5.00;;
2728;SDS011;1372;47.956;7.830;2022-11-20T09:09:40;4.27;;;3.20;;
2728;SDS011;1372;47.956;7.830;2022-11-20T09:12:09;4.67;;;4.27;;
2728;SDS011;1372;47.956;7.830;2022-11-20T09:14:38;7.60;;;6.57;;
2728;SDS011;1372;47.956;7.830;2022-11-20T09:17:09;13.40;;;8.73;;
2728;SDS011;1372;47.956;7.830;2022-11-20T09:19:40;5.07;;;4.13;;
2728;SDS011;1372;47.956;7.830;2022-11-20T09:22:11;5.57;;;4.20;;
2728;SDS011;1372;47.956;7.830;2022-11-20T09:24:39;5.40;;;3.50;;
2728;SDS011;1372;47.956;7.830;2022-11-20T09:27:09;2.70;;;2.50;;
2728;SDS011;1372;47.956;7.830;2022-11-20T09:29:39;4.20;;;3.20;;
2728;SDS011;1372;47.956;7.830;2022-11-20T09:32:08;5.83;;;4.40;;
2728;SDS011;1372;47.956;7.830;2022-11-20T09:34:39;6.43;;;5.10;;
2728;SDS011;1372;47.956;7.830;2022-11-20T09:37:08;9.53;;;5.67;;
2728;SDS011;1372;47.956;7.830;2022-11-20T09:39:38;4.70;;;3.80;;
2728;SDS011;1372;47.956;7.830;2022-11-20T09:42:19;3.10;;;2.63;;
2728;SDS011;1372;47.956;7.830;2022-11-20T09:45:13;5.60;;;4.57;;
2728;SDS011;1372;47.956;7.830;2022-11-20T09:47:58;5.63;;;4.10;;
2728;SDS011;1372;47.956;7.830;2022-11-20T09:50:41;3.57;;;3.07;;
2728;SDS011;1372;47.956;7.830;2022-11-20T09:53:17;5.80;;;2.87;;
2728;SDS011;1372;47.956;7.830;2022-11-20T09:56:00;3.10;;;2.90;;
2728;SDS011;1372;47.956;7.830;2022-11-20T09:58:32;3.00;;;2.70;;
2728;SDS011;1372;47.956;7.830;2022-11-20T10:01:09;4.70;;;2.63;;
2728;SDS011;1372;47.956;7.830;2022-11-20T10:03:44;3.40;;;3.03;;
2728;SDS011;1372;47.956;7.830;2022-11-20T10:06:23;3.07;;;2.37;;
2728;SDS011;1372;47.956;7.830;2022-11-20T10:09:03;6.53;;;2.80;;
2728;SDS011;1372;47.956;7.830;2022-11-20T10:11:48;2.90;;;2.60;;
2728;SDS011;1372;47.956;7.830;2022-11-20T10:14:31;3.13;;;2.67;;
2728;SDS011;1372;47.956;7.830;2022-11-20T10:17:12;3.03;;;1.70;;
2728;SDS011;1372;47.956;7.830;2022-11-20T10:19:56;4.77;;;3.03;;
2728;SDS011;1372;47.956;7.830;2022-11-20T10:22:47;3.13;;;2.40;;
2728;SDS011;1372;47.956;7.830;2022-11-20T10:25:46;2.33;;;2.13;;
2728;SDS011;1372;47.956;7.830;2022-11-20T10:28:28;3.10;;;2.57;;
2728;SDS011;1372;47.956;7.830;2022-11-20T10:31:23;3.40;;;3.00;;
2728;SDS011;1372;47.956;7.830;2022-11-20T10:33:58;4.70;;;2.70;;
2728;SDS011;1372;47.956;7.830;2022-11-20T10:36:40;3.37;;;2.37;;
2728;SDS011;1372;47.956;7.830;2022-11-20T10:39:14;2.70;;;2.33;;
2728;SDS011;1372;47.956;7.830;2022-11-20T10:41:54;3.10;;;2.87;;
2728;SDS011;1372;47.956;7.830;2022-11-20T10:44:29;2.63;;;2.43;;
2728;SDS011;1372;47.956;7.830;2022-11-20T10:47:20;3.10;;;2.70;;
2728;SDS011;1372;47.956;7.830;2022-11-20T10:49:50;2.93;;;2.73;;
2728;SDS011;1372;47.956;7.830;2022-11-20T10:52:24;2.57;;;2.37;;
2728;SDS011;1372;47.956;7.830;2022-11-20T10:55:03;3.43;;;3.13;;
2728;SDS011;1372;47.956;7.830;2022-11-20T10:57:46;3.20;;;2.60;;
2728;SDS011;1372;47.956;7.830;2022-11-20T11:00:25;3.30;;;3.10;;
2728;SDS011;1372;47.956;7.830;2022-11-20T11:02:54;4.50;;;4.10;;
2728;SDS011;1372;47.956;7.830;2022-11-20T11:05:33;4.50;;;3.90;;
2728;SDS011;1372;47.956;7.830;2022-11-20T11:08:13;2.87;;;2.37;;
2728;SDS011;1372;47.956;7.830;2022-11-20T11:10:46;2.60;;;2.40;;
2728;SDS011;1372;47.956;7.830;2022-11-20T11:13:23;16.70;;;10.40;;
2728;SDS011;1372;47.956;7.830;2022-11-20T11:15:55;15.80;;;9.97;;
2728;SDS011;1372;47.956;7.830;2022-11-20T11:18:26;5.03;;;3.13;;
2728;SDS011;1372;47.956;7.830;2022-11-20T11:20:59;4.03;;;3.33;;
2728;SDS011;1372;47.956;7.830;2022-11-20T11:23:31;6.10;;;4.03;;
2728;SDS011;1372;47.956;7.830;2022-11-20T11:26:03;5.97;;;2.80;;
2728;SDS011;1372;47.956;7.830;2022-11-20T11:28:35;2.90;;;2.03;;
2728;SDS011;1372;47.956;7.830;2022-11-20T11:31:06;2.63;;;2.40;;
2728;SDS011;1372;47.956;7.830;2022-11-20T11:33:34;2.40;;;2.20;;
2728;SDS011;1372;47.956;7.830;2022-11-20T11:36:14;3.67;;;3.00;;
2728;SDS011;1372;47.956;7.830;2022-11-20T11:38:50;10.40;;;5.27;;
2728;SDS011;1372;47.956;7.830;2022-11-20T11:41:22;5.70;;;3.67;;
2728;SDS011;1372;47.956;7.830;2022-11-20T11:44:00;2.70;;;2.50;;
2728;SDS011;1372;47.956;7.830;2022-11-20T11:47:01;7.80;;;5.93;;
2728;SDS011;1372;47.956;7.830;2022-11-20T11:49:37;4.20;;;3.60;;
2728;SDS011;1372;47.956;7.830;2022-11-20T11:52:10;3.27;;;2.97;;
2728;SDS011;1372;47.956;7.830;2022-11-20T11:54:45;3.27;;;2.47;;
2728;SDS011;1372;47.956;7.830;2022-11-20T11:57:20;3.03;;;2.73;;
2728;SDS011;1372;47.956;7.830;2022-11-20T11:59:59;1.73;;;1.63;;
2728;SDS011;1372;47.956;7.830;2022-11-20T12:02:34;2.37;;;2.03;;
2728;SDS011;1372;47.956;7.830;2022-11-20T12:05:13;6.77;;;3.00;;
2728;SDS011;1372;47.956;7.830;2022-11-20T12:07:47;15.77;;;11.10;;
2728;SDS011;1372;47.956;7.830;2022-11-20T12:10:21;7.10;;;5.40;;
2728;SDS011;1372;47.956;7.830;2022-11-20T12:12:58;3.93;;;3.50;;
2728;SDS011;1372;47.956;7.830;2022-11-20T12:15:31;3.97;;;3.40;;
2728;SDS011;1372;47.956;7.830;2022-11-20T12:18:06;2.97;;;2.73;;
2728;SDS011;1372;47.956;7.830;2022-11-20T12:20:45;4.07;;;3.70;;
2728;SDS011;1372;47.956;7.830;2022-11-20T12:23:28;2.60;;;2.30;;
2728;SDS011;1372;47.956;7.830;2022-11-20T12:26:13;4.30;;;3.67;;
2728;SDS011;1372;47.956;7.830;2022-11-20T12:28:57;6.23;;;4.40;;
2728;SDS011;1372;47.956;7.830;2022-11-20T12:34:43;3.00;;;2.70;;
2728;SDS011;1372;47.956;7.830;2022-11-20T12:37:24;3.90;;;3.50;;
2728;SDS011;1372;47.956;7.830;2022-11-20T12:40:12;2.70;;;2.47;;
2728;SDS011;1372;47.956;7.830;2022-11-20T12:42:57;3.20;;;2.20;;
2728;SDS011;1372;47.956;7.830;2022-11-20T12:48:52;2.30;;;2.10;;
2728;SDS011;1372;47.956;7.830;2022-11-20T12:51:55;5.83;;;2.40;;
2728;SDS011;1372;47.956;7.830;2022-11-20T12:54:55;2.83;;;2.50;;
2728;SDS011;1372;47.956;7.830;2022-11-20T12:58:05;4.23;;;3.17;;
2728;SDS011;1372;47.956;7.830;2022-11-20T13:00:47;2.73;;;2.50;;
2728;SDS011;1372;47.956;7.830;2022-11-20T13:06:15;2.70;;;2.50;;
2728;SDS011;1372;47.956;7.830;2022-11-20T13:08:49;4.40;;;2.80;;
2728;SDS011;1372;47.956;7.830;2022-11-20T13:11:24;2.97;;;2.57;;
2728;SDS011;1372;47.956;7.830;2022-11-20T13:14:04;2.67;;;2.27;;
2728;SDS011;1372;47.956;7.830;2022-11-20T13:16:45;2.90;;;2.70;;
2728;SDS011;1372;47.956;7.830;2022-11-20T13:19:25;4.63;;;3.37;;
2728;SDS011;1372;47.956;7.830;2022-11-20T13:21:56;4.00;;;2.30;;
2728;SDS011;1372;47.956;7.830;2022-11-20T13:24:32;2.23;;;2.03;;
2728;SDS011;1372;47.956;7.830;2022-11-20T13:29:59;1.87;;;1.70;;
2728;SDS011;1372;47.956;7.830;2022-11-20T13:32:47;2.97;;;2.23;;
2728;SDS011;1372;47.956;7.830;2022-11-20T13:35:26;3.57;;;2.77;;
2728;SDS011;1372;47.956;7.830;2022-11-20T13:38:02;4.80;;;3.03;;
2728;SDS011;1372;47.956;7.830;2022-11-20T13:40:37;2.03;;;1.93;;
2728;SDS011;1372;47.956;7.830;2022-11-20T13:43:19;2.13;;;1.83;;
2728;SDS011;1372;47.956;7.830;2022-11-20T13:45:58;2.33;;;1.73;;
2728;SDS011;1372;47.956;7.830;2022-11-20T13:48:33;1.80;;;1.20;;
2728;SDS011;1372;47.956;7.830;2022-11-20T13:51:09;1.60;;;1.17;;
2728;SDS011;1372;47.956;7.830;2022-11-20T13:54:13;1.43;;;1.33;;
2728;SDS011;1372;47.956;7.830;2022-11-20T13:57:27;2.87;;;1.80;;
2728;SDS011;1372;47.956;7.830;2022-11-20T14:00:11;2.77;;;1.87;;
2728;SDS011;1372;47.956;7.830;2022-11-20T14:02:42;2.30;;;2.10;;
2728;SDS011;1372;47.956;7.830;2022-11-20T14:05:17;1.40;;;1.30;;
2728;SDS011;1372;47.956;7.830;2022-11-20T14:07:50;2.23;;;1.63;;
2728;SDS011;1372;47.956;7.830;2022-11-20T14:10:21;2.10;;;1.40;;
2728;SDS011;1372;47.956;7.830;2022-11-20T14:13:09;2.87;;;1.43;;
2728;SDS011;1372;47.956;7.830;2022-11-20T14:15:39;2.37;;;2.17;;
2728;SDS011;1372;47.956;7.830;2022-11-20T14:18:11;2.13;;;1.17;;
2728;SDS011;1372;47.956;7.830;2022-11-20T14:20:46;1.60;;;1.30;;
2728;SDS011;1372;47.956;7.830;2022-11-20T14:23:22;4.50;;;2.60;;
2728;SDS011;1372;47.956;7.830;2022-11-20T14:25:56;3.50;;;2.70;;
2728;SDS011;1372;47.956;7.830;2022-11-20T14:28:29;2.10;;;1.40;;
2728;SDS011;1372;47.956;7.830;2022-11-20T14:30:59;3.30;;;1.10;;
2728;SDS011;1372;47.956;7.830;2022-11-20T14:33:28;3.57;;;1.40;;
2728;SDS011;1372;47.956;7.830;2022-11-20T14:36:06;2.10;;;1.20;;
2728;SDS011;1372;47.956;7.830;2022-11-20T14:38:45;2.10;;;1.60;;
2728;SDS011;1372;47.956;7.830;2022-11-20T14:41:17;5.50;;;3.70;;
2728;SDS011;1372;47.956;7.830;2022-11-20T14:43:49;3.90;;;2.57;;
2728;SDS011;1372;47.956;7.830;2022-11-20T14:46:23;1.60;;;1.50;;
2728;SDS011;1372;47.956;7.830;2022-11-20T14:48:53;1.60;;;1.43;;
2728;SDS011;1372;47.956;7.830;2022-11-20T14:51:26;1.97;;;1.60;;
2728;SDS011;1372;47.956;7.830;2022-11-20T14:54:11;2.53;;;1.63;;
2728;SDS011;1372;47.956;7.830;2022-11-20T14:56:53;1.43;;;1.33;;
2728;SDS011;1372;47.956;7.830;2022-11-20T14:59:24;1.20;;;0.93;;
2728;SDS011;1372;47.956;7.830;2022-11-20T15:01:55;1.47;;;1.00;;
2728;SDS011;1372;47.956;7.830;2022-11-20T15:04:26;1.93;;;1.17;;
2728;SDS011;1372;47.956;7.830;2022-11-20T15:06:56;1.50;;;1.40;;
2728;SDS011;1372;47.956;7.830;2022-11-20T15:09:29;2.50;;;2.30;;
2728;SDS011;1372;47.956;7.830;2022-11-20T15:11:59;1.87;;;1.77;;
2728;SDS011;1372;47.956;7.830;2022-11-20T15:14:32;1.50;;;1.40;;
2728;SDS011;1372;47.956;7.830;2022-11-20T15:17:01;3.10;;;2.17;;
2728;SDS011;1372;47.956;7.830;2022-11-20T15:19:30;2.50;;;1.93;;
2728;SDS011;1372;47.956;7.830;2022-11-20T15:22:12;3.13;;;2.07;;
2728;SDS011;1372;47.956;7.830;2022-11-20T15:24:43;1.90;;;1.80;;
2728;SDS011;1372;47.956;7.830;2022-11-20T15:27:14;1.07;;;1.07;;
2728;SDS011;1372;47.956;7.830;2022-11-20T15:29:44;1.33;;;1.23;;
2728;SDS011;1372;47.956;7.830;2022-11-20T15:32:15;2.90;;;1.20;;
2728;SDS011;1372;47.956;7.830;2022-11-20T15:34:44;2.03;;;1.20;;
2728;SDS011;1372;47.956;7.830;2022-11-20T15:37:13;1.40;;;1.10;;
2728;SDS011;1372;47.956;7.830;2022-11-20T15:39:42;1.20;;;1.10;;
2728;SDS011;1372;47.956;7.830;2022-11-20T15:51:35;1.37;;;0.93;;
2728;SDS011;1372;47.956;7.830;2022-11-20T15:54:08;0.97;;;0.90;;
2728;SDS011;1372;47.956;7.830;2022-11-20T15:56:39;3.83;;;1.90;;
2728;SDS011;1372;47.956;7.830;2022-11-20T15:59:08;2.27;;;2.10;;
2728;SDS011;1372;47.956;7.830;2022-11-20T16:01:38;3.73;;;2.33;;
2728;SDS011;1372;47.956;7.830;2022-11-20T16:04:09;4.60;;;2.23;;
2728;SDS011;1372;47.956;7.830;2022-11-20T16:06:41;1.80;;;1.70;;
2728;SDS011;1372;47.956;7.830;2022-11-20T16:09:17;3.13;;;1.60;;
2728;SDS011;1372;47.956;7.830;2022-11-20T16:11:46;1.93;;;1.50;;
2728;SDS011;1372;47.956;7.830;2022-11-20T16:24:32;3.07;;;2.80;;